Time;durP1;ratioP1;P1;durP2;ratioP2;P2;SDS_P1;SDS_P2;PMS_P1;PMS_P2;Temp;Humidity;BMP_temperature;BMP_pressure;BME280_temperature;BME280_humidity;BME280_pressure;Samples;Min_cycle;Max_cycle;Signal;HPM_P1;HPM_P2
2023/08/05 17:04:58;;;;;;;197.77;71.85;;;;;;;29.66;30.14;92323.91;523453;27;20412;-45
2023/08/05 17:05:15;;;;;;;83.53;30.38;;;;;;;29.65;31.00;92319.66;525511;28;851;-43
2023/08/05 17:05:30;;;;;;;8.73;3.72;;;;;;;29.64;31.01;92330.31;523625;28;1208;-44
2023/08/05 17:05:46;;;;;;;4.93;3.73;;;;;;;29.65;30.85;92326.03;520246;28;11138;-45
2023/08/05 17:06:01;;;;;;;5.65;3.60;;;;;;;29.66;31.22;92318.94;517765;28;12269;-43
2023/08/05 17:06:17;;;;;;;5.97;3.57;;;;;;;29.66;30.97;92324.63;519462;28;879;-45
2023/08/05 17:06:32;;;;;;;5.75;4.28;;;;;;;29.68;31.00;92329.59;518851;28;1100;-45
2023/08/05 17:06:47;;;;;;;7.13;4.40;;;;;;;29.70;31.28;92335.31;519346;28;871;-44
2023/08/05 17:07:03;;;;;;;5.60;3.77;;;;;;;29.70;31.18;92324.63;519255;28;871;-45
2023/08/05 17:07:18;;;;;;;5.28;3.53;;;;;;;29.71;30.25;92334.63;520562;28;1535;-45
2023/08/05 17:07:34;;;;;;;5.20;3.43;;;;;;;29.69;29.96;92320.34;519326;28;1072;-45
2023/08/05 17:07:49;;;;;;;7.37;3.63;;;;;;;29.75;30.04;92328.97;519399;28;792;-44
2023/08/05 17:08:05;;;;;;;14.02;4.05;;;;;;;29.77;30.08;92325.41;519333;28;1154;-44
2023/08/05 17:08:21;;;;;;;9.77;3.70;;;;;;;29.79;29.92;92326.13;520234;28;838;-45
2023/08/05 17:08:36;;;;;;;3.75;3.33;;;;;;;29.83;30.03;92333.97;521382;28;990;-44
2023/08/05 17:08:52;;;;;;;4.15;3.50;;;;;;;29.84;30.20;92324.03;521358;28;878;-46
2023/08/05 17:09:07;;;;;;;5.23;3.50;;;;;;;29.87;30.08;92331.88;519437;28;848;-44
2023/08/05 17:09:22;;;;;;;7.03;3.63;;;;;;;29.90;30.05;92329.75;520063;28;983;-45
2023/08/05 17:09:38;;;;;;;7.15;3.53;;;;;;;29.92;30.04;92330.47;519359;28;1132;-45
2023/08/05 17:09:53;;;;;;;4.30;2.93;;;;;;;29.86;29.46;92299.16;519340;28;785;-44
2023/08/05 17:10:10;;;;;;;4.65;3.25;;;;;;;30.01;29.66;92324.81;519388;28;764;-44
2023/08/05 17:10:25;;;;;;;5.10;3.53;;;;;;;30.01;29.65;92325.53;519283;28;11610;-45
2023/08/05 17:10:41;;;;;;;4.27;3.10;;;;;;;30.05;29.20;92327.66;520207;28;1185;-44
2023/08/05 17:10:56;;;;;;;4.47;3.00;;;;;;;30.08;29.51;92326.25;519410;28;1055;-45
2023/08/05 17:11:12;;;;;;;5.83;3.20;;;;;;;30.09;29.20;92325.53;519400;28;802;-45
2023/08/05 17:11:27;;;;;;;4.75;3.08;;;;;;;30.07;28.87;92319.84;520807;28;869;-45
2023/08/05 17:11:42;;;;;;;7.07;3.43;;;;;;;30.09;29.01;92325.53;519434;28;749;-42
2023/08/05 17:11:58;;;;;;;8.80;3.70;;;;;;;30.12;29.04;92332.69;519378;28;873;-44
2023/08/05 17:12:14;;;;;;;5.18;3.22;;;;;;;30.13;28.98;92328.41;519190;28;1156;-44
2023/08/05 17:23:19;;;;;;;100.22;44.45;;;;;;;29.69;30.51;92320.34;475470;27;1330688;-51
2023/08/05 17:23:34;;;;;;;42.63;19.90;;;;;;;29.71;29.32;92316.81;512726;28;11817;-46
2023/08/05 17:23:49;;;;;;;3.57;3.23;;;;;;;29.72;28.94;92313.25;514208;28;11634;-48
2023/08/05 17:24:05;;;;;;;3.38;3.08;;;;;;;29.74;29.82;92316.16;513430;28;11496;-49
2023/08/05 17:24:20;;;;;;;580.20;274.40;;;;;;;29.77;30.86;92314.75;515558;28;11533;-40
2023/08/05 17:24:36;;;;;;;719.95;293.50;;;;;;;29.80;33.45;92319.00;517210;28;12694;-45
2023/08/05 17:24:51;;;;;;;101.20;41.63;;;;;;;29.82;30.98;92316.19;512213;28;22455;-51
2023/08/05 17:25:06;;;;;;;36.10;15.93;;;;;;;29.83;29.68;92319.75;514542;28;11634;-45
2023/08/05 17:25:22;;;;;;;3.70;3.33;;;;;;;29.83;29.57;92309.09;517115;28;11424;-48
2023/08/05 17:25:41;;;;;;;3.63;3.30;;;;;;;29.85;29.73;92306.25;516194;28;11614;-49
2023/08/05 17:25:57;;;;;;;8.20;3.28;;;;;;;29.87;29.82;92311.94;516118;28;11516;-46
2023/08/05 17:26:12;;;;;;;6.45;3.33;;;;;;;29.90;29.89;92307.69;518552;28;848;-49
2023/08/05 17:26:27;;;;;;;6.40;3.33;;;;;;;29.88;29.91;92310.53;519736;28;811;-48
2023/08/05 17:26:43;;;;;;;6.88;3.17;;;;;;;29.92;29.71;92310.56;519531;28;848;-48
2023/08/05 17:26:58;;;;;;;3.87;2.83;;;;;;;29.93;29.28;92317.66;516940;28;1734;-48
2023/08/05 17:27:13;;;;;;;4.63;3.07;;;;;;;29.95;29.27;92317.66;518720;28;848;-47
2023/08/05 17:27:29;;;;;;;6.97;3.38;;;;;;;29.96;29.48;92313.41;519516;28;859;-47
2023/08/05 17:27:44;;;;;;;6.77;3.50;;;;;;;29.97;29.94;92299.91;517479;28;1106;-46
2023/08/05 17:27:59;;;;;;;6.17;3.40;;;;;;;30.01;29.94;92313.41;517346;28;828;-47
2023/08/05 17:28:15;;;;;;;9.70;3.30;;;;;;;29.99;30.28;92311.97;518852;28;942;-47
2023/08/05 17:28:30;;;;;;;9.63;3.55;;;;;;;30.00;30.41;92309.84;518131;28;1305;-48
2023/08/05 17:28:46;;;;;;;6.57;3.53;;;;;;;30.01;30.01;92310.56;517345;28;922;-47
2023/08/05 17:29:01;;;;;;;4.45;3.20;;;;;;;30.04;29.07;92312.72;517227;28;839;-47
2023/08/05 17:29:17;;;;;;;3.10;2.90;;;;;;;30.05;28.76;92308.47;517383;28;999;-48
2023/08/05 17:29:32;;;;;;;3.20;2.90;;;;;;;30.08;28.85;92309.19;517329;28;819;-48
2023/08/05 17:29:49;;;;;;;3.42;3.13;;;;;;;30.08;28.87;92303.50;517371;28;856;-47
2023/08/05 17:30:05;;;;;;;3.97;3.05;;;;;;;30.12;29.70;92304.22;517466;28;883;-47
2023/08/05 17:30:20;;;;;;;4.50;2.90;;;;;;;30.16;29.27;92309.19;519371;28;800;-47
2023/08/05 17:30:36;;;;;;;5.13;3.22;;;;;;;30.15;29.28;92307.78;519418;28;879;-48
2023/08/05 17:30:51;;;;;;;6.53;3.43;;;;;;;30.15;29.04;92308.47;515460;28;1721;-47
2023/08/05 17:31:06;;;;;;;6.67;3.30;;;;;;;30.15;29.43;92310.63;516628;28;893;-48
2023/08/05 17:31:22;;;;;;;6.78;3.25;;;;;;;30.16;29.47;92307.06;518878;28;836;-48
2023/08/05 17:31:37;;;;;;;6.63;3.17;;;;;;;30.18;28.40;92300.66;517690;28;788;-47
2023/08/05 17:31:53;;;;;;;4.77;2.97;;;;;;;30.18;28.89;92300.66;517370;28;1167;-47
2023/08/05 17:32:08;;;;;;;4.72;2.95;;;;;;;30.17;28.77;92302.78;517741;28;1225;-48
2023/08/05 17:32:23;;;;;;;7.78;3.20;;;;;;;30.17;29.17;92304.94;517559;28;851;-48
2023/08/05 17:32:39;;;;;;;11.63;3.20;;;;;;;30.20;29.08;92304.22;517554;28;808;-48
2023/08/05 17:32:54;;;;;;;8.55;3.00;;;;;;;30.21;29.07;92299.25;517508;28;848;-47
2023/08/05 17:33:11;;;;;;;4.53;3.00;;;;;;;30.23;29.39;92296.41;518332;28;773;-47
2023/08/05 17:33:27;;;;;;;5.22;3.22;;;;;;;30.21;29.22;92302.09;518860;28;1066;-48
2023/08/05 17:33:43;;;;;;;5.03;3.50;;;;;;;30.20;28.98;92298.53;517415;28;961;-48
2023/08/05 17:33:58;;;;;;;4.07;3.50;;;;;;;30.22;29.19;92301.41;517538;28;883;-47
2023/08/05 17:34:14;;;;;;;4.47;3.50;;;;;;;30.24;29.11;92306.38;518871;28;792;-47
2023/08/05 17:34:29;;;;;;;3.90;3.30;;;;;;;30.24;29.54;92298.53;516221;28;1827;-47
2023/08/05 17:34:56;;;;;;;95.78;48.80;;;;;;;30.27;28.88;92300.00;527016;27;20397;-48
2023/08/05 17:35:12;;;;;;;40.83;20.77;;;;;;;30.28;28.97;92304.25;526209;28;811;-48
2023/08/05 17:35:34;;;;;;;5.60;2.77;;;;;;;30.28;28.98;92298.56;526825;28;986;-50
2023/08/05 17:35:53;;;;;;;4.72;2.90;;;;;;;30.26;29.38;92298.56;527863;28;885;-47
2023/08/05 17:36:08;;;;;;;3.08;2.63;;;;;;;30.28;27.89;92297.84;526689;28;1151;-48
2023/08/05 17:36:23;;;;;;;2.90;2.60;;;;;;;30.29;27.95;92297.16;526615;28;1182;-50
2023/08/05 17:36:39;;;;;;;3.55;2.90;;;;;;;30.30;27.98;92297.88;527383;28;1289;-49
2023/08/05 17:36:55;;;;;;;4.47;3.20;;;;;;;30.31;28.34;92299.31;527899;28;779;-49
2023/08/05 17:37:11;;;;;;;3.85;3.30;;;;;;;30.32;28.58;92298.59;524251;28;1635;-51
2023/08/05 17:37:26;;;;;;;3.30;3.00;;;;;;;30.33;27.90;92299.31;525766;28;871;-49
2023/08/05 17:37:41;;;;;;;4.30;3.10;;;;;;;30.32;28.44;92292.19;523764;28;847;-50
2023/08/05 17:37:58;;;;;;;6.37;3.50;;;;;;;30.28;28.52;92292.13;523823;28;1389;-51
2023/08/05 17:38:13;;;;;;;17.30;4.32;;;;;;;30.31;28.45;92300.03;525878;28;963;-50
2023/08/05 17:38:28;;;;;;;21.50;4.17;;;;;;;30.32;28.50;92295.03;525920;28;780;-49
2023/08/05 17:38:44;;;;;;;12.07;3.33;;;;;;;30.33;28.58;92297.19;525779;28;930;-49
2023/08/05 17:38:59;;;;;;;5.90;3.03;;;;;;;30.34;28.12;92295.06;525826;28;787;-49
2023/08/05 17:39:14;;;;;;;3.15;2.70;;;;;;;30.36;28.62;92289.34;525141;28;1205;-49
2023/08/05 17:39:31;;;;;;;3.60;2.97;;;;;;;30.33;28.63;92294.34;526664;28;1120;-49
2023/08/05 17:39:46;;;;;;;3.50;3.20;;;;;;;30.33;28.51;92293.63;525721;28;1194;-50
2023/08/05 17:40:02;;;;;;;3.50;3.20;;;;;;;30.32;29.16;92292.91;525786;28;842;-48
2023/08/05 17:40:17;;;;;;;4.63;3.10;;;;;;;30.31;28.77;92290.75;525719;28;924;-50
2023/08/05 17:40:33;;;;;;;4.88;3.10;;;;;;;30.32;29.24;92295.03;524717;28;1537;-49
2023/08/05 17:40:48;;;;;;;4.00;3.10;;;;;;;30.33;29.21;92287.91;525822;28;1145;-51
2023/08/05 17:41:04;;;;;;;4.90;3.00;;;;;;;30.29;28.76;92293.56;525640;28;827;-49
2023/08/05 17:41:19;;;;;;;5.33;3.20;;;;;;;30.31;28.86;92288.63;525687;28;855;-50
2023/08/05 17:41:34;;;;;;;3.47;3.00;;;;;;;30.30;29.37;92289.31;524701;28;1711;-51
2023/08/05 17:41:50;;;;;;;3.43;2.77;;;;;;;30.30;29.31;92289.31;524872;28;1090;-49
2023/08/05 17:42:06;;;;;;;4.18;3.15;;;;;;;30.29;29.08;92287.88;526584;28;767;-49
2023/08/05 17:42:21;;;;;;;4.07;3.20;;;;;;;30.25;28.30;92285.03;527276;28;1062;-50
2023/08/05 17:42:36;;;;;;;4.35;3.22;;;;;;;30.24;29.26;92287.16;525743;28;1101;-49
2023/08/05 17:42:52;;;;;;;5.20;3.33;;;;;;;30.24;29.30;92283.59;525458;28;897;-50
2023/08/05 17:43:07;;;;;;;4.43;3.08;;;;;;;30.25;29.23;92293.56;525402;28;844;-50
2023/08/05 17:43:23;;;;;;;3.10;2.80;;;;;;;30.25;29.18;92293.56;526035;28;1141;-51
2023/08/05 17:43:38;;;;;;;3.50;3.20;;;;;;;30.24;29.04;92292.13;526894;28;859;-51
2023/08/05 17:43:53;;;;;;;4.87;3.30;;;;;;;30.22;28.70;92286.44;525475;28;910;-49
2023/08/05 17:44:09;;;;;;;4.57;2.92;;;;;;;30.25;28.55;92291.44;525019;28;1580;-49
2023/08/05 17:44:24;;;;;;;4.53;2.93;;;;;;;30.19;28.29;92293.56;525143;28;1097;-49
2023/08/05 17:44:39;;;;;;;4.73;2.93;;;;;;;30.18;28.66;92292.84;523575;28;780;-49
2023/08/05 17:44:55;;;;;;;3.50;2.88;;;;;;;30.19;27.96;92294.25;523564;28;825;-49
2023/08/05 17:45:10;;;;;;;3.10;2.80;;;;;;;30.21;28.10;92294.28;524521;28;922;-50
2023/08/05 17:45:26;;;;;;;3.20;2.90;;;;;;;30.22;28.32;92290.00;523523;28;795;-49
2023/08/05 17:45:41;;;;;;;3.90;3.03;;;;;;;30.19;27.63;92296.41;524887;28;764;-49
2023/08/05 17:45:57;;;;;;;5.10;3.00;;;;;;;30.20;27.79;92290.00;527904;28;843;-51
2023/08/05 17:46:13;;;;;;;12.00;3.20;;;;;;;30.22;27.87;92292.13;526041;28;808;-49
2023/08/05 17:46:28;;;;;;;12.00;3.30;;;;;;;30.25;27.55;92285.75;523653;28;841;-49
2023/08/05 17:46:45;;;;;;;4.00;2.80;;;;;;;30.26;27.60;92295.69;524404;28;1390;-49
2023/08/05 17:47:01;;;;;;;3.75;2.72;;;;;;;30.25;27.55;92288.59;524976;28;1727;-50
2023/08/05 17:47:16;;;;;;;3.85;2.88;;;;;;;30.26;27.82;92295.69;525110;28;1245;-49
2023/08/05 17:47:32;;;;;;;15.33;4.67;;;;;;;30.27;27.11;92274.38;519837;28;11711;-51
2023/08/05 17:47:47;;;;;;;66.20;13.67;;;;;;;30.26;27.53;92289.28;523174;28;11446;-50
2023/08/05 17:48:03;;;;;;;42.40;9.95;;;;;;;30.27;27.95;92287.88;522985;28;11423;-49
2023/08/05 17:48:19;;;;;;;6.47;3.10;;;;;;;30.27;28.11;92285.03;523724;28;964;-50
2023/08/05 17:48:34;;;;;;;8.68;3.20;;;;;;;30.27;28.22;92294.28;523813;28;1274;-50
2023/08/05 17:48:49;;;;;;;5.57;3.00;;;;;;;30.24;28.27;92289.28;525425;28;1346;-49
2023/08/05 17:49:05;;;;;;;5.97;3.08;;;;;;;30.19;28.33;92285.03;525123;28;1201;-48
2023/08/05 17:49:20;;;;;;;6.70;3.47;;;;;;;30.19;28.18;92285.72;521596;28;875;-49
2023/08/05 17:49:36;;;;;;;3.27;2.97;;;;;;;30.20;27.55;92286.44;521636;28;830;-49
2023/08/05 17:49:51;;;;;;;2.87;2.67;;;;;;;30.20;27.39;92295.69;521781;28;1781;-49
2023/08/05 17:50:07;;;;;;;3.25;2.80;;;;;;;30.20;27.75;92286.44;523066;28;996;-50
2023/08/05 17:50:22;;;;;;;3.33;2.57;;;;;;;30.22;27.77;92283.59;523624;28;781;-49
2023/08/05 17:50:38;;;;;;;2.63;2.40;;;;;;;30.23;27.57;92285.03;523774;28;830;-52
2023/08/05 17:50:57;;;;;;;3.37;2.70;;;;;;;30.23;27.62;92282.19;523691;28;1088;-49
2023/08/05 17:51:13;;;;;;;4.07;2.65;;;;;;;30.24;27.47;92281.47;495848;28;12639;-49
2023/08/05 17:51:28;;;;;;;3.90;2.60;;;;;;;30.25;27.54;92290.72;527740;28;739;-51
2023/08/05 17:51:43;;;;;;;3.30;2.80;;;;;;;30.25;27.79;92288.59;527661;28;1422;-49
2023/08/05 17:51:59;;;;;;;3.17;2.65;;;;;;;30.24;27.69;92281.47;527695;28;833;-49
2023/08/05 17:52:16;;;;;;;4.77;2.60;;;;;;;30.25;27.55;92285.75;527281;28;774;-50
2023/08/05 17:52:31;;;;;;;4.50;2.75;;;;;;;30.26;27.84;92287.16;527720;28;872;-50
2023/08/05 17:52:46;;;;;;;3.50;2.73;;;;;;;30.26;27.80;92277.91;527722;28;1309;-48
2023/08/05 17:53:02;;;;;;;4.35;2.67;;;;;;;30.25;27.88;92287.88;527438;28;842;-51
2023/08/05 17:53:17;;;;;;;3.53;2.53;;;;;;;30.23;27.97;92279.34;523863;28;785;-49
2023/08/05 17:53:33;;;;;;;2.90;2.60;;;;;;;30.17;28.10;92282.88;523634;28;948;-47
2023/08/05 17:53:48;;;;;;;2.80;2.60;;;;;;;30.15;27.91;92280.00;523780;28;1684;-49
2023/08/05 17:54:03;;;;;;;2.92;2.72;;;;;;;30.08;28.51;92281.44;524375;28;1010;-49
2023/08/05 17:54:19;;;;;;;3.30;2.90;;;;;;;30.10;28.38;92278.59;524264;28;1014;-50
2023/08/05 17:54:34;;;;;;;3.67;2.83;;;;;;;30.09;28.26;92282.84;525717;28;870;-50
2023/08/05 17:54:50;;;;;;;3.70;2.90;;;;;;;30.10;27.86;92275.75;525273;28;1914;-50
2023/08/05 17:55:05;;;;;;;3.30;2.83;;;;;;;30.12;28.00;92284.28;525031;28;1228;-49
2023/08/05 17:55:21;;;;;;;3.28;2.78;;;;;;;30.13;27.87;92274.31;525687;28;1153;-51
2023/08/05 17:55:37;;;;;;;4.17;3.17;;;;;;;30.14;29.05;92283.56;525516;28;1311;-57
2023/08/05 17:55:53;;;;;;;5.15;3.10;;;;;;;30.15;28.96;92279.31;525364;28;902;-52
2023/08/05 17:56:08;;;;;;;4.60;2.70;;;;;;;30.12;27.92;92278.59;524593;28;1043;-54
2023/08/05 17:56:23;;;;;;;3.30;2.60;;;;;;;30.14;28.21;92275.03;525671;28;1161;-53
2023/08/05 17:56:39;;;;;;;3.00;2.70;;;;;;;30.15;28.15;92280.00;525814;28;803;-54
2023/08/05 17:56:54;;;;;;;2.80;2.60;;;;;;;30.16;28.08;92272.91;525819;28;832;-55
2023/08/05 17:57:10;;;;;;;2.60;2.40;;;;;;;30.19;28.03;92282.16;525194;28;1428;-53
2023/08/05 17:57:25;;;;;;;3.28;2.40;;;;;;;30.19;27.93;92273.63;524905;28;1712;-54
2023/08/05 17:57:41;;;;;;;3.77;2.43;;;;;;;30.22;27.64;92275.03;525454;28;967;-53
2023/08/05 17:57:56;;;;;;;3.67;2.65;;;;;;;30.21;27.78;92268.66;525490;28;1216;-54
2023/08/05 17:58:11;;;;;;;3.50;2.70;;;;;;;30.22;27.64;92269.34;525668;28;845;-52
2023/08/05 17:58:27;;;;;;;2.70;2.50;;;;;;;30.23;27.78;92270.78;524315;28;779;-51
2023/08/05 17:58:42;;;;;;;2.80;2.57;;;;;;;30.23;27.55;92265.09;524964;28;1102;-54
2023/08/05 17:58:58;;;;;;;3.15;2.47;;;;;;;30.24;27.42;92263.66;525756;28;870;-52
2023/08/05 17:59:17;;;;;;;2.70;2.10;;;;;;;30.25;27.60;92265.81;525613;28;807;-52
2023/08/05 17:59:32;;;;;;;2.80;2.42;;;;;;;30.26;27.49;92266.50;525147;28;1264;-53
2023/08/05 17:59:48;;;;;;;4.15;2.65;;;;;;;30.26;27.71;92258.69;525673;28;1450;-53
2023/08/05 18:00:04;;;;;;;3.77;2.57;;;;;;;30.27;27.33;92267.94;524911;28;1601;-54
2023/08/05 18:00:19;;;;;;;2.60;2.40;;;;;;;30.26;27.33;92260.81;525179;28;914;-53
2023/08/05 18:00:34;;;;;;;2.40;2.20;;;;;;;30.27;27.55;92265.81;524296;28;774;-54
2023/08/05 18:00:50;;;;;;;2.30;2.10;;;;;;;30.27;27.67;92262.25;523702;28;817;-53
2023/08/05 18:01:05;;;;;;;2.40;2.20;;;;;;;30.28;27.86;92261.53;524170;28;1229;-53
2023/08/05 18:01:21;;;;;;;2.70;2.50;;;;;;;30.29;27.82;92262.97;525694;28;808;-53
2023/08/05 18:01:36;;;;;;;3.00;2.70;;;;;;;30.29;27.80;92259.41;525631;28;1400;-52
2023/08/05 18:01:52;;;;;;;3.80;2.60;;;;;;;30.20;28.21;92257.97;525738;28;927;-53
2023/08/05 18:02:07;;;;;;;4.20;2.63;;;;;;;30.19;27.63;92257.25;525578;28;915;-50
2023/08/05 18:02:22;;;;;;;4.03;2.50;;;;;;;30.21;28.00;92270.78;524162;28;1716;-53
2023/08/05 18:02:38;;;;;;;3.97;2.43;;;;;;;30.22;28.26;92261.53;524856;28;957;-56
2023/08/05 18:02:54;;;;;;;3.70;2.70;;;;;;;30.24;28.01;92258.69;524567;28;823;-54
2023/08/05 18:03:09;;;;;;;3.97;2.72;;;;;;;30.23;27.81;92260.13;524709;28;1267;-55
2023/08/05 18:03:25;;;;;;;3.20;2.63;;;;;;;30.23;27.83;92265.81;524578;28;887;-54
2023/08/05 18:03:40;;;;;;;2.87;2.57;;;;;;;30.25;27.88;92257.28;523612;28;814;-53
2023/08/05 18:03:56;;;;;;;2.95;2.53;;;;;;;30.26;27.62;92260.81;523723;28;879;-53
2023/08/05 18:04:13;;;;;;;3.00;2.70;;;;;;;30.26;27.96;92255.13;524909;28;819;-51
2023/08/05 18:04:29;;;;;;;2.70;2.50;;;;;;;30.26;28.00;92257.97;523892;28;847;-55
2023/08/05 18:04:44;;;;;;;2.60;2.40;;;;;;;30.27;27.96;92256.56;525806;28;826;-53
2023/08/05 18:05:00;;;;;;;2.70;2.50;;;;;;;30.26;27.84;92261.53;523634;28;1358;-54
2023/08/05 18:05:17;;;;;;;3.92;2.55;;;;;;;30.27;28.20;92262.97;525546;28;823;-53
2023/08/05 18:05:32;;;;;;;6.10;2.63;;;;;;;30.29;27.94;92256.56;523920;28;1118;-55
2023/08/05 18:05:50;;;;;;;2.67;2.43;;;;;;;30.27;28.06;92262.25;525751;28;902;-53
2023/08/05 18:06:05;;;;;;;3.38;2.55;;;;;;;30.26;27.96;92258.69;525726;28;883;-55
2023/08/05 18:06:21;;;;;;;3.70;2.70;;;;;;;30.28;27.92;92269.34;524946;28;1145;-54
2023/08/05 18:06:36;;;;;;;4.73;2.80;;;;;;;30.27;28.13;92265.81;525801;28;841;-54
2023/08/05 18:06:51;;;;;;;5.25;2.75;;;;;;;30.28;28.14;92266.50;525702;28;917;-51
2023/08/05 18:07:07;;;;;;;3.53;2.50;;;;;;;30.29;28.33;92267.94;525136;28;1177;-54
2023/08/05 18:07:22;;;;;;;3.10;2.50;;;;;;;30.29;28.19;92270.78;525617;28;1296;-54
2023/08/05 18:07:38;;;;;;;3.78;2.50;;;;;;;30.27;27.89;92274.38;525619;28;832;-53
2023/08/05 18:07:53;;;;;;;3.57;2.50;;;;;;;30.27;27.73;92267.94;523437;28;1775;-54
2023/08/05 18:08:08;;;;;;;2.77;2.53;;;;;;;30.28;28.18;92272.22;524875;28;838;-55
2023/08/05 18:08:24;;;;;;;2.72;2.53;;;;;;;30.28;28.01;92272.22;523641;28;1561;-52
2023/08/05 18:08:39;;;;;;;2.80;2.60;;;;;;;30.29;27.83;92268.66;525576;28;1014;-53
2023/08/05 18:08:55;;;;;;;2.73;2.53;;;;;;;30.30;27.73;92272.22;525830;28;789;-52
2023/08/05 18:09:10;;;;;;;3.15;2.50;;;;;;;30.29;27.78;92273.66;523695;28;828;-52
2023/08/05 18:09:26;;;;;;;4.53;2.70;;;;;;;30.29;27.91;92273.66;523636;28;918;-53
2023/08/05 18:09:41;;;;;;;3.63;2.58;;;;;;;30.29;28.11;92277.22;523555;28;878;-50
2023/08/05 18:09:58;;;;;;;4.20;2.50;;;;;;;30.30;27.73;92281.47;523716;28;781;-50
2023/08/05 18:10:13;;;;;;;4.10;2.65;;;;;;;30.31;28.26;92276.53;525543;28;1106;-50
2023/08/05 18:10:29;;;;;;;3.17;2.75;;;;;;;30.30;28.46;92278.63;525811;28;851;-51
2023/08/05 18:10:44;;;;;;;2.97;2.63;;;;;;;30.30;28.39;92277.94;525774;28;877;-52
2023/08/05 18:11:00;;;;;;;3.60;2.47;;;;;;;30.30;28.04;92286.47;525744;28;814;-53
2023/08/05 18:11:15;;;;;;;3.50;2.27;;;;;;;30.30;28.36;92283.63;525683;28;847;-52
2023/08/05 18:11:31;;;;;;;3.28;2.38;;;;;;;30.28;28.86;92280.75;525536;28;1133;-55
2023/08/05 18:11:46;;;;;;;4.30;2.67;;;;;;;30.26;29.07;92284.31;525529;28;1798;-51
2023/08/05 18:12:02;;;;;;;3.77;2.50;;;;;;;30.23;28.45;92291.44;524937;28;1236;-52
2023/08/05 18:12:17;;;;;;;3.13;2.42;;;;;;;30.21;28.65;92282.91;525305;28;887;-50
2023/08/05 18:12:33;;;;;;;3.40;2.50;;;;;;;30.22;28.43;92283.59;523628;28;789;-54
2023/08/05 18:12:48;;;;;;;2.95;2.63;;;;;;;30.22;28.46;92284.31;523715;28;782;-53
2023/08/05 18:13:04;;;;;;;3.03;2.67;;;;;;;30.23;28.71;92282.19;524144;28;1145;-54
2023/08/05 18:13:20;;;;;;;3.20;2.53;;;;;;;30.22;28.57;92286.44;525770;28;803;-49
2023/08/05 18:13:35;;;;;;;2.45;2.22;;;;;;;30.22;28.58;92292.84;525635;28;824;-51
2023/08/05 18:13:51;;;;;;;2.43;2.23;;;;;;;30.23;28.42;92288.59;525682;28;774;-54
2023/08/05 18:14:06;;;;;;;2.53;2.33;;;;;;;30.21;28.56;92288.59;524345;28;787;-51
2023/08/05 18:14:21;;;;;;;3.78;2.45;;;;;;;30.18;28.88;92292.13;525719;28;822;-53
2023/08/05 18:14:37;;;;;;;6.30;2.50;;;;;;;30.18;28.62;92283.59;524036;28;1967;-51
2023/08/05 18:14:52;;;;;;;4.70;2.50;;;;;;;30.18;28.80;92286.44;523597;28;842;-53
2023/08/05 18:15:08;;;;;;;3.30;2.65;;;;;;;30.16;28.64;92281.44;525344;28;848;-54
2023/08/05 18:15:23;;;;;;;3.53;2.70;;;;;;;30.16;28.59;92292.13;525672;28;995;-55
2023/08/05 18:15:39;;;;;;;3.25;2.65;;;;;;;30.17;28.94;92282.16;523883;28;937;-52
2023/08/05 18:15:54;;;;;;;4.93;2.57;;;;;;;30.17;28.84;92287.88;523615;28;859;-53
2023/08/05 18:16:09;;;;;;;4.97;2.53;;;;;;;30.18;29.15;92289.28;523929;28;1114;-52
2023/08/05 18:16:25;;;;;;;2.70;2.42;;;;;;;30.18;28.77;92284.31;523728;28;838;-52
2023/08/05 18:16:40;;;;;;;3.80;2.47;;;;;;;30.18;28.96;92284.31;523579;28;879;-54
2023/08/05 18:16:56;;;;;;;3.83;2.43;;;;;;;30.18;28.87;92277.88;523640;28;1041;-52
2023/08/05 18:17:11;;;;;;;3.38;2.47;;;;;;;30.18;28.90;92277.88;524939;28;847;-50
2023/08/05 18:17:27;;;;;;;4.93;2.70;;;;;;;30.17;28.65;92285.72;525752;28;933;-55
2023/08/05 18:17:42;;;;;;;3.87;2.57;;;;;;;30.18;28.88;92289.28;525539;28;1133;-51
2023/08/05 18:17:57;;;;;;;3.05;2.50;;;;;;;30.14;28.96;92283.56;525223;28;1767;-54
2023/08/05 18:18:13;;;;;;;2.73;2.43;;;;;;;30.17;28.65;92282.88;524313;28;806;-54
2023/08/05 18:18:28;;;;;;;2.67;2.42;;;;;;;30.17;28.84;92287.88;525305;28;951;-53
2023/08/05 18:18:44;;;;;;;2.90;2.42;;;;;;;30.14;29.03;92286.41;523576;28;891;-53
2023/08/05 18:18:59;;;;;;;5.77;2.43;;;;;;;30.14;29.01;92286.41;523791;28;840;-51
2023/08/05 18:19:14;;;;;;;6.18;2.70;;;;;;;30.15;28.97;92287.84;525448;28;1169;-50
2023/08/05 18:19:32;;;;;;;3.90;2.70;;;;;;;30.14;28.81;92281.44;525639;28;883;-52
2023/08/05 18:19:47;;;;;;;3.30;2.50;;;;;;;30.15;29.13;92282.16;525400;28;1145;-50
2023/08/05 18:20:03;;;;;;;2.50;2.30;;;;;;;30.15;28.78;92285.00;525482;28;946;-53
2023/08/05 18:20:18;;;;;;;2.55;2.35;;;;;;;30.16;28.76;92277.88;524065;28;1195;-53
2023/08/05 18:20:35;;;;;;;3.97;2.50;;;;;;;30.14;29.05;92289.28;525628;28;1386;-53
2023/08/05 18:20:50;;;;;;;4.18;2.50;;;;;;;30.13;29.22;92285.69;524025;28;1223;-53
2023/08/05 18:21:06;;;;;;;3.20;2.57;;;;;;;30.12;28.80;92292.13;523890;28;823;-55
2023/08/05 18:21:21;;;;;;;3.90;2.72;;;;;;;30.10;29.13;92287.13;523545;28;1073;-54
2023/08/05 18:21:37;;;;;;;6.03;2.80;;;;;;;30.10;29.37;92292.09;523643;28;799;-52
2023/08/05 18:21:52;;;;;;;7.70;3.00;;;;;;;30.10;29.36;92292.09;523594;28;832;-54
2023/08/05 18:22:08;;;;;;;7.20;3.13;;;;;;;30.10;29.58;92283.56;524487;28;812;-54
2023/08/05 18:22:23;;;;;;;5.37;3.03;;;;;;;30.10;29.62;92286.41;523591;28;888;-52
2023/08/05 18:22:39;;;;;;;3.78;2.88;;;;;;;30.09;29.48;92280.00;523634;28;879;-55
2023/08/05 18:22:54;;;;;;;3.73;2.90;;;;;;;30.08;29.69;92287.13;523584;28;918;-54
2023/08/05 18:23:09;;;;;;;2.93;2.63;;;;;;;30.10;29.17;92294.94;524660;28;853;-55
2023/08/05 18:23:25;;;;;;;2.70;2.40;;;;;;;30.07;29.10;92290.66;525808;28;833;-51
2023/08/05 18:23:42;;;;;;;4.17;2.60;;;;;;;30.02;29.73;92295.63;525519;28;1161;-55
2023/08/05 18:23:57;;;;;;;3.63;2.60;;;;;;;29.92;29.63;92284.22;523772;28;1381;-56
2023/08/05 18:24:13;;;;;;;3.50;2.70;;;;;;;29.96;29.42;92287.78;527070;28;793;-52
2023/08/05 18:24:28;;;;;;;4.55;2.60;;;;;;;29.94;29.51;92290.63;527729;28;846;-54
2023/08/05 18:24:44;;;;;;;5.80;2.30;;;;;;;29.96;29.36;92298.47;527529;28;821;-51
2023/08/05 18:24:59;;;;;;;4.78;2.40;;;;;;;29.94;29.32;92290.63;526396;28;1712;-52
2023/08/05 18:25:14;;;;;;;5.00;2.57;;;;;;;29.96;29.33;92293.47;526900;28;1039;-53
2023/08/05 18:25:30;;;;;;;4.33;2.43;;;;;;;29.96;29.36;92289.91;527650;28;803;-53
2023/08/05 18:25:45;;;;;;;2.70;2.30;;;;;;;29.95;29.64;92292.03;527719;28;847;-50
2023/08/05 18:26:01;;;;;;;3.50;2.40;;;;;;;29.96;29.33;92290.63;526102;28;755;-51
2023/08/05 18:26:16;;;;;;;3.33;2.50;;;;;;;29.95;29.70;92289.19;525665;28;1357;-50
2023/08/05 18:26:32;;;;;;;2.67;2.17;;;;;;;29.95;29.43;92294.88;525758;28;779;-55
2023/08/05 18:26:49;;;;;;;6.27;2.20;;;;;;;29.96;29.46;92295.63;525677;28;1118;-51
2023/08/05 18:27:05;;;;;;;8.43;2.53;;;;;;;29.95;29.43;92297.03;524833;28;797;-52
2023/08/05 18:27:22;;;;;;;5.65;2.83;;;;;;;29.95;29.67;92294.88;525711;28;780;-51
2023/08/05 18:27:37;;;;;;;5.38;2.78;;;;;;;29.93;29.83;92294.19;525693;28;960;-53
2023/08/05 18:27:53;;;;;;;7.97;3.13;;;;;;;29.93;29.68;92294.88;525615;28;867;-50
2023/08/05 18:28:09;;;;;;;9.80;3.23;;;;;;;29.92;30.11;92287.78;524380;28;1803;-55
2023/08/05 18:28:26;;;;;;;11.27;2.90;;;;;;;29.93;30.33;92285.66;523528;28;823;-53
2023/08/05 18:28:41;;;;;;;8.57;2.65;;;;;;;29.92;30.00;92287.78;524270;28;1163;-51
2023/08/05 18:28:57;;;;;;;4.40;2.63;;;;;;;29.92;30.15;92284.94;525706;28;902;-51
2023/08/05 18:29:16;;;;;;;3.90;2.53;;;;;;;29.93;29.83;92292.03;525153;28;859;-50
2023/08/05 18:29:32;;;;;;;3.85;2.55;;;;;;;29.89;30.23;92292.03;525327;28;1250;-50
2023/08/05 18:29:48;;;;;;;4.17;2.53;;;;;;;29.85;30.44;92294.88;525625;28;1362;-52
2023/08/05 18:30:04;;;;;;;3.03;2.63;;;;;;;29.83;30.37;92292.00;525594;28;925;-52
2023/08/05 18:30:19;;;;;;;3.28;2.63;;;;;;;29.81;30.72;92288.44;525186;28;1419;-51
2023/08/05 18:30:35;;;;;;;3.63;2.67;;;;;;;29.81;30.65;92291.28;525560;28;1421;-52
2023/08/05 18:30:51;;;;;;;2.80;2.47;;;;;;;29.82;30.63;92284.19;524148;28;1703;-50
2023/08/05 18:31:07;;;;;;;2.75;2.45;;;;;;;29.82;30.63;92289.88;524223;28;1467;-52
2023/08/05 18:31:22;;;;;;;2.83;2.50;;;;;;;29.80;30.64;92282.03;525592;28;922;-53
2023/08/05 18:31:38;;;;;;;2.95;2.33;;;;;;;29.80;30.68;92292.72;525635;28;1195;-50